KADS/ADS METAR and TAF weather

Enter ICAO airport designator
Station Type Date Time Source
KADS METAR 2019/12/13 13:47 UTC NOAA

KADS 131347Z 19004KT 10SM SKC 07/05 A2991


Station Type Date Time Source
KADS Decoded METAR 2019/12/13 13:47 UTC NOAA

Dallas / Addison Airport, TX, United States (KADS) 32-58N 096-50W
Dec 13, 2019 - 08:47 AM EST / 2019.12.13 1347 UTC
Wind: from the S (190 degrees) at 5 MPH (4 KT):0
Visibility: 10 mile(s):0
Sky conditions: clear
Temperature: 44 F (7 C)
Dew Point: 41 F (5 C)
Relative Humidity: 87%
Pressure (altimeter): 29.91 in. Hg (1012 hPa)
ob: KADS 131347Z 19004KT 10SM SKC 07/05 A2991
cycle: 14

Station Type Date Time Source
KADS TAF UTC NOAA

Error!

Example: see airport list